createdAt,value
2022-12-29T15:18:16.204Z,0.90
2022-12-29T15:22:18.592Z,0.70
2022-12-29T15:26:21.966Z,0.40
2022-12-29T15:30:24.470Z,0.90
2022-12-29T15:34:26.707Z,1.00
2022-12-29T15:38:34.518Z,1.00
2022-12-29T15:42:46.685Z,1.43
2022-12-29T15:46:48.884Z,1.47
2022-12-29T15:50:52.302Z,0.67
2022-12-29T15:54:55.221Z,1.03
2022-12-29T15:58:57.333Z,1.67
2022-12-29T16:03:00.932Z,2.20
2022-12-29T16:07:04.922Z,2.93
2022-12-29T16:11:22.308Z,1.50
2022-12-29T16:15:24.541Z,2.00
2022-12-29T16:19:30.436Z,1.43
2022-12-29T16:23:33.097Z,1.00
2022-12-29T16:27:39.297Z,0.97
2022-12-29T16:31:50.616Z,0.97
2022-12-29T16:35:52.767Z,1.20
2022-12-29T16:39:54.904Z,1.67
2022-12-29T16:44:15.612Z,1.50
2022-12-29T16:48:17.793Z,1.20
2022-12-29T16:52:25.182Z,1.30
2022-12-29T16:56:29.111Z,1.20
2022-12-29T17:00:35.231Z,1.40
2022-12-29T17:04:37.411Z,1.10
2022-12-29T17:08:41.385Z,1.27
2022-12-29T17:12:44.508Z,1.07
2022-12-29T17:16:46.951Z,1.13
2022-12-29T17:20:49.052Z,1.30
2022-12-29T17:24:51.215Z,1.40
2022-12-29T17:28:53.363Z,1.40
2022-12-29T17:32:58.968Z,1.13
2022-12-29T17:37:01.166Z,0.73
2022-12-29T17:41:03.320Z,0.93
2022-12-29T17:45:05.690Z,1.13
2022-12-29T17:49:11.586Z,0.60
2022-12-29T17:53:15.679Z,1.03
2022-12-29T17:57:18.371Z,0.80
2022-12-29T18:01:20.640Z,1.10
2022-12-29T18:05:30.068Z,1.23
2022-12-29T18:09:32.236Z,0.83
2022-12-29T18:13:43.953Z,1.07
2022-12-29T18:17:48.706Z,0.70
2022-12-29T18:21:50.849Z,0.80
2022-12-29T18:26:01.045Z,1.00
2022-12-29T18:30:03.227Z,0.93
2022-12-29T18:34:13.348Z,1.17
2022-12-29T18:38:15.604Z,1.10
2022-12-29T18:42:18.120Z,1.20
2022-12-29T18:46:23.282Z,1.53
2022-12-29T18:50:25.988Z,1.30
2022-12-29T18:54:29.583Z,1.60
2022-12-29T18:58:34.188Z,1.50
2022-12-29T19:02:36.932Z,1.27
2022-12-29T19:06:39.071Z,1.33
2022-12-29T19:10:41.731Z,1.47
2022-12-29T19:14:44.353Z,1.37
2022-12-29T19:18:53.388Z,1.10
2022-12-29T19:23:07.439Z,1.47
2022-12-29T19:27:09.566Z,1.43
2022-12-29T19:31:11.762Z,1.30
2022-12-29T19:35:13.989Z,1.37
2022-12-29T19:39:16.181Z,1.23
2022-12-29T19:43:18.375Z,1.27
2022-12-29T19:47:21.058Z,1.23
2022-12-29T19:51:23.351Z,1.30
2022-12-29T19:55:25.512Z,1.50
2022-12-29T19:59:27.666Z,1.23
2022-12-29T20:03:29.918Z,1.30
2022-12-29T20:07:32.151Z,1.00
2022-12-29T20:11:34.343Z,1.10
2022-12-29T20:15:36.518Z,1.07
2022-12-29T20:19:39.472Z,1.27
2022-12-29T20:23:42.114Z,1.13
2022-12-29T20:27:44.317Z,1.40
2022-12-29T20:31:46.938Z,1.50
2022-12-29T20:35:49.220Z,1.07
2022-12-29T20:39:52.516Z,1.20
2022-12-29T20:43:54.934Z,1.03
2022-12-29T20:47:57.087Z,0.97
2022-12-29T20:52:06.397Z,0.80
2022-12-29T20:56:11.887Z,0.90
2022-12-29T21:00:18.893Z,1.10
2022-12-29T21:04:24.676Z,1.10
2022-12-29T21:08:27.679Z,0.80
2022-12-29T21:12:29.972Z,1.13
2022-12-29T21:16:32.405Z,0.90
2022-12-29T21:20:34.608Z,0.60
2022-12-29T21:24:36.761Z,0.80
2022-12-29T21:28:39.596Z,1.10
2022-12-29T21:32:41.804Z,1.07
2022-12-29T21:36:43.931Z,0.87
2022-12-29T21:40:46.106Z,0.87
2022-12-29T21:44:48.341Z,0.70
2022-12-29T21:48:50.638Z,0.87
2022-12-29T21:52:52.807Z,0.93
2022-12-29T21:56:55.064Z,0.87
2022-12-29T22:00:57.266Z,1.20
2022-12-29T22:04:59.496Z,1.10
2022-12-29T22:09:02.824Z,0.77
2022-12-29T22:13:05.004Z,0.40
2022-12-29T22:17:12.219Z,0.70
2022-12-29T22:21:16.282Z,0.97
2022-12-29T22:25:18.695Z,0.50
2022-12-29T22:29:20.839Z,1.00
2022-12-29T22:33:23.037Z,0.40
2022-12-29T22:37:28.050Z,0.73
2022-12-29T22:41:30.277Z,0.63
2022-12-29T22:45:32.561Z,0.43
2022-12-29T22:49:34.709Z,0.67
2022-12-29T22:53:36.928Z,0.50
2022-12-29T22:57:39.086Z,0.70
2022-12-29T23:01:41.865Z,0.60
2022-12-29T23:05:44.124Z,0.60
2022-12-29T23:09:46.419Z,0.60
2022-12-29T23:13:48.645Z,0.50
2022-12-29T23:17:50.814Z,0.70
2022-12-29T23:21:52.988Z,0.70
2022-12-29T23:25:55.138Z,1.03
2022-12-29T23:29:57.298Z,0.73
2022-12-29T23:34:00.535Z,0.67
2022-12-29T23:38:02.777Z,0.67
2022-12-29T23:42:04.976Z,0.60
2022-12-29T23:46:11.305Z,0.43
2022-12-29T23:50:13.490Z,0.70
2022-12-29T23:54:15.673Z,0.77
2022-12-29T23:58:17.804Z,0.50
